createdAt,value
2023-04-02T00:00:22.261Z,8.75
2023-04-02T00:03:24.686Z,8.80
2023-04-02T00:06:44.740Z,8.72
2023-04-02T00:09:47.335Z,8.61
2023-04-02T00:13:05.805Z,8.71
2023-04-02T00:16:13.186Z,8.60
2023-04-02T00:19:23.329Z,8.56
2023-04-02T00:22:29.498Z,8.59
2023-04-02T00:25:43.230Z,8.53
2023-04-02T00:28:45.465Z,8.39
2023-04-02T00:31:50.607Z,8.46
2023-04-02T00:34:54.378Z,8.54
2023-04-02T00:37:56.969Z,8.60
2023-04-02T00:41:03.027Z,8.69
2023-04-02T00:44:06.124Z,8.83
2023-04-02T00:47:17.189Z,8.97
2023-04-02T00:50:39.144Z,8.98
2023-04-02T00:53:44.598Z,8.95
2023-04-02T00:56:50.756Z,9.02
2023-04-02T00:59:55.682Z,9.01
2023-04-02T01:03:16.591Z,9.04
2023-04-02T01:06:20.593Z,9.08
2023-04-02T01:09:53.401Z,9.11
2023-04-02T01:13:08.911Z,9.09
2023-04-02T01:16:20.643Z,9.23
2023-04-02T01:19:32.185Z,9.22
2023-04-02T01:22:48.150Z,9.27
2023-04-02T01:25:53.366Z,9.34
2023-04-02T01:29:03.071Z,9.24
2023-04-02T01:32:15.616Z,9.26
2023-04-02T01:35:18.133Z,9.30
2023-04-02T01:38:29.287Z,9.21
2023-04-02T01:41:49.305Z,9.22
2023-04-02T01:44:54.212Z,9.19
2023-04-02T01:47:56.840Z,9.17
2023-04-02T01:51:01.002Z,9.15
2023-04-02T01:54:06.233Z,9.12
2023-04-02T01:57:09.299Z,9.13
2023-04-02T02:00:15.053Z,9.15
2023-04-02T02:03:20.766Z,9.16
2023-04-02T02:06:24.003Z,9.22
2023-04-02T02:09:31.022Z,9.10
2023-04-02T02:12:33.315Z,9.08
2023-04-02T02:15:39.076Z,9.04
2023-04-02T02:18:41.915Z,9.03
2023-04-02T02:21:56.931Z,8.93
2023-04-02T02:25:03.043Z,8.90
2023-04-02T02:28:23.692Z,8.90
2023-04-02T02:31:31.054Z,8.88
2023-04-02T02:34:39.723Z,8.92
2023-04-02T02:37:46.995Z,8.88
2023-04-02T02:40:56.652Z,8.90
2023-04-02T02:44:14.588Z,9.00
2023-04-02T02:47:22.481Z,9.04
2023-04-02T02:50:31.339Z,9.01
2023-04-02T02:53:46.867Z,8.97
2023-04-02T02:57:04.136Z,8.98
2023-04-02T03:00:09.768Z,8.83
2023-04-02T03:03:22.197Z,8.69
2023-04-02T03:06:28.787Z,8.77
2023-04-02T03:09:41.974Z,8.72
2023-04-02T03:13:08.520Z,8.62
2023-04-02T03:16:31.319Z,8.59
2023-04-02T03:19:51.342Z,8.47
2023-04-02T03:23:08.992Z,8.50
2023-04-02T03:26:19.202Z,8.49
2023-04-02T03:29:27.204Z,8.50
2023-04-02T03:32:38.763Z,8.48
2023-04-02T03:35:48.244Z,8.35
2023-04-02T03:38:57.041Z,8.25
2023-04-02T03:42:04.958Z,8.13
2023-04-02T03:45:21.380Z,8.13
2023-04-02T03:48:39.553Z,8.12
2023-04-02T03:52:10.591Z,8.06
2023-04-02T03:55:24.305Z,8.07
2023-04-02T03:58:51.771Z,8.06
2023-04-02T04:02:01.904Z,7.96
2023-04-02T04:05:06.915Z,7.89
2023-04-02T04:08:27.122Z,7.94
2023-04-02T04:11:35.761Z,7.94
2023-04-02T04:14:45.976Z,7.92
2023-04-02T04:17:57.840Z,8.06
2023-04-02T04:21:30.981Z,8.14
2023-04-02T04:24:45.604Z,8.17
2023-04-02T04:28:08.276Z,8.27
2023-04-02T04:31:34.038Z,8.22
2023-04-02T04:34:47.018Z,8.26
2023-04-02T04:38:03.881Z,8.21
2023-04-02T04:41:17.432Z,8.11
2023-04-02T04:44:25.385Z,8.02
2023-04-02T04:47:42.625Z,8.13
2023-04-02T04:50:50.690Z,8.15
2023-04-02T04:53:55.271Z,8.19
2023-04-02T04:57:04.054Z,8.14
2023-04-02T05:00:18.614Z,8.34
2023-04-02T05:03:55.590Z,8.57
2023-04-02T05:07:14.315Z,8.91
2023-04-02T05:10:26.550Z,9.08
2023-04-02T05:14:01.557Z,9.28
2023-04-02T05:17:04.472Z,9.86
2023-04-02T05:20:16.470Z,10.11
2023-04-02T05:23:48.274Z,10.46
2023-04-02T05:26:53.398Z,10.73
2023-04-02T05:30:23.206Z,11.00
2023-04-02T05:33:32.334Z,11.05
2023-04-02T05:36:38.552Z,11.35
2023-04-02T05:39:50.285Z,11.79
2023-04-02T05:42:55.716Z,12.14
2023-04-02T05:46:03.774Z,12.36
2023-04-02T05:49:14.095Z,13.04
2023-04-02T05:52:23.589Z,13.26
2023-04-02T05:55:43.256Z,13.77
2023-04-02T05:59:11.900Z,14.20
2023-04-02T06:02:39.670Z,14.08
2023-04-02T06:05:46.152Z,14.32
2023-04-02T06:08:57.775Z,14.12
2023-04-02T06:12:24.812Z,14.44
2023-04-02T06:15:30.044Z,14.05
2023-04-02T06:18:37.448Z,13.83
2023-04-02T06:21:45.783Z,14.20
2023-04-02T06:24:56.304Z,14.82
2023-04-02T06:28:01.726Z,14.99
2023-04-02T06:31:10.937Z,14.99
2023-04-02T06:34:22.463Z,15.73
2023-04-02T06:37:35.839Z,15.89
2023-04-02T06:40:58.931Z,16.12
2023-04-02T06:44:18.655Z,16.52
2023-04-02T06:47:38.672Z,17.06
2023-04-02T06:50:49.165Z,17.65
2023-04-02T06:54:16.139Z,17.72
2023-04-02T06:57:20.731Z,18.40
2023-04-02T07:00:33.898Z,18.42
2023-04-02T07:03:36.910Z,17.59
2023-04-02T07:06:51.266Z,16.73
2023-04-02T07:09:54.330Z,16.18
2023-04-02T07:12:56.647Z,15.88
2023-04-02T07:15:59.914Z,15.93
2023-04-02T07:19:04.177Z,16.50
2023-04-02T07:22:09.405Z,15.91
2023-04-02T07:25:15.988Z,15.83
2023-04-02T07:28:19.194Z,16.00
2023-04-02T07:31:25.951Z,16.03
2023-04-02T07:34:28.376Z,15.70
2023-04-02T07:37:31.396Z,15.63
2023-04-02T07:40:33.726Z,16.99
2023-04-02T07:43:36.243Z,17.79
2023-04-02T07:46:38.547Z,17.24
2023-04-02T07:49:40.952Z,16.63
2023-04-02T07:52:43.985Z,17.28
2023-04-02T07:55:46.255Z,17.10
2023-04-02T07:58:49.071Z,16.22
2023-04-02T08:01:55.183Z,15.79
2023-04-02T08:04:57.426Z,15.91
2023-04-02T08:07:59.705Z,15.67
2023-04-02T08:11:01.970Z,15.78
2023-04-02T08:14:04.511Z,15.66
2023-04-02T08:17:06.786Z,15.94
2023-04-02T08:20:16.292Z,15.65
2023-04-02T08:23:18.588Z,15.57
2023-04-02T08:26:21.129Z,15.58
2023-04-02T08:29:23.548Z,16.06
2023-04-02T08:32:29.021Z,16.36
2023-04-02T08:35:31.398Z,16.32
2023-04-02T08:38:33.762Z,16.91
2023-04-02T08:42:06.587Z,17.68
2023-04-02T08:45:25.410Z,19.20
2023-04-02T08:48:44.236Z,20.08
2023-04-02T08:51:47.482Z,21.12
2023-04-02T08:54:50.491Z,20.72
2023-04-02T08:58:07.468Z,20.17
2023-04-02T09:01:31.688Z,19.15
2023-04-02T09:04:34.657Z,17.51
2023-04-02T09:07:37.039Z,17.71
2023-04-02T09:10:45.573Z,17.74
2023-04-02T09:13:55.529Z,17.27
2023-04-02T09:17:03.950Z,17.26
2023-04-02T09:20:26.516Z,17.14
2023-04-02T09:23:29.242Z,17.00
2023-04-02T09:26:34.090Z,16.78
2023-04-02T09:29:43.421Z,16.79
2023-04-02T09:32:53.427Z,16.80
2023-04-02T09:35:57.898Z,16.38
2023-04-02T09:39:06.878Z,16.14
2023-04-02T09:42:35.149Z,16.12
2023-04-02T09:45:38.046Z,16.28
2023-04-02T09:48:58.484Z,16.71
2023-04-02T09:52:29.672Z,16.41
2023-04-02T09:55:32.229Z,16.62
2023-04-02T09:58:34.503Z,16.86
2023-04-02T10:01:39.650Z,16.63
2023-04-02T10:04:48.267Z,16.51
2023-04-02T10:07:53.334Z,16.16
2023-04-02T10:10:59.602Z,16.02
2023-04-02T10:14:38.086Z,16.19
2023-04-02T10:17:41.016Z,16.30
2023-04-02T10:20:51.276Z,16.22
2023-04-02T10:23:55.559Z,16.20
2023-04-02T10:27:22.740Z,16.76
2023-04-02T10:30:32.050Z,16.92
2023-04-02T10:33:37.650Z,16.79
2023-04-02T10:36:57.886Z,16.76
2023-04-02T10:40:10.733Z,16.64
2023-04-02T10:43:30.962Z,17.03
2023-04-02T10:46:36.134Z,16.83
2023-04-02T10:49:44.072Z,17.33
2023-04-02T10:52:53.047Z,18.45
2023-04-02T10:56:03.458Z,18.29
2023-04-02T10:59:15.706Z,18.21
2023-04-02T11:02:36.149Z,17.74
2023-04-02T11:05:50.940Z,17.42
2023-04-02T11:09:01.272Z,16.75
2023-04-02T11:12:06.373Z,16.89
2023-04-02T11:15:19.198Z,17.07
2023-04-02T11:18:29.782Z,16.97
2023-04-02T11:21:55.032Z,17.15
2023-04-02T11:25:01.443Z,17.45
2023-04-02T11:28:20.870Z,17.46
2023-04-02T11:31:23.309Z,17.52
2023-04-02T11:34:43.963Z,17.70
2023-04-02T11:37:46.519Z,17.92
2023-04-02T11:40:53.073Z,17.63
2023-04-02T11:44:01.420Z,17.75
2023-04-02T11:47:25.183Z,17.72
2023-04-02T11:50:31.996Z,17.53
2023-04-02T11:53:35.015Z,17.71
2023-04-02T11:56:53.056Z,17.75
2023-04-02T12:00:11.190Z,17.98
2023-04-02T12:03:36.109Z,17.90
2023-04-02T12:06:39.936Z,17.64
2023-04-02T12:09:49.758Z,17.66
2023-04-02T12:12:52.144Z,17.96
2023-04-02T12:15:59.582Z,18.31
2023-04-02T12:19:07.994Z,18.61
2023-04-02T12:22:20.053Z,19.00
2023-04-02T12:25:46.566Z,18.39
2023-04-02T12:28:48.788Z,18.69
2023-04-02T12:31:51.257Z,18.72
2023-04-02T12:34:55.818Z,18.34
2023-04-02T12:37:58.181Z,18.28
2023-04-02T12:41:16.189Z,17.96
2023-04-02T12:44:21.985Z,17.76
2023-04-02T12:47:25.102Z,17.72
2023-04-02T12:50:27.445Z,17.86
2023-04-02T12:53:36.689Z,18.21
2023-04-02T12:56:39.020Z,18.28
2023-04-02T12:59:42.918Z,18.40
2023-04-02T13:02:47.386Z,18.40
2023-04-02T13:05:52.824Z,17.70
2023-04-02T13:08:55.571Z,17.41
2023-04-02T13:11:58.432Z,17.27
2023-04-02T13:15:03.879Z,16.94
2023-04-02T13:18:20.774Z,16.58
2023-04-02T13:21:28.429Z,16.78
2023-04-02T13:24:33.188Z,16.89
2023-04-02T13:27:35.798Z,16.89
2023-04-02T13:30:38.219Z,17.27
2023-04-02T13:33:40.554Z,17.39
2023-04-02T13:36:42.876Z,17.02
2023-04-02T13:39:45.114Z,17.03
2023-04-02T13:42:49.899Z,17.00
2023-04-02T13:45:54.436Z,16.82
2023-04-02T13:48:57.694Z,17.00
2023-04-02T13:52:04.371Z,16.79
2023-04-02T13:55:06.965Z,17.03
2023-04-02T13:58:10.737Z,17.09
2023-04-02T14:01:14.414Z,17.16
2023-04-02T14:04:30.073Z,17.30
2023-04-02T14:08:06.654Z,17.48
2023-04-02T14:11:18.082Z,17.54
2023-04-02T14:14:55.646Z,17.41
2023-04-02T14:18:07.147Z,17.41
2023-04-02T14:21:26.686Z,17.36
2023-04-02T14:24:37.638Z,17.77
2023-04-02T14:27:40.399Z,17.92
2023-04-02T14:30:57.115Z,17.93
2023-04-02T14:34:21.072Z,17.62
2023-04-02T14:37:36.936Z,17.17
2023-04-02T14:40:46.307Z,16.75
2023-04-02T14:43:55.690Z,16.80
2023-04-02T14:47:19.108Z,15.68
2023-04-02T14:50:39.132Z,15.17
2023-04-02T14:53:58.798Z,14.94
2023-04-02T14:57:17.000Z,14.37
2023-04-02T15:00:31.801Z,14.16
2023-04-02T15:03:43.398Z,13.77
2023-04-02T15:06:52.515Z,13.70
2023-04-02T15:10:19.631Z,13.46
2023-04-02T15:13:30.648Z,13.14
2023-04-02T15:16:36.538Z,12.44
2023-04-02T15:19:39.711Z,11.98
2023-04-02T15:23:07.295Z,11.90
2023-04-02T15:26:21.734Z,11.96
2023-04-02T15:30:01.944Z,12.25
2023-04-02T15:33:44.278Z,12.35
2023-04-02T15:37:05.040Z,12.41
2023-04-02T15:40:16.056Z,12.28
2023-04-02T15:43:24.696Z,12.10
2023-04-02T15:46:51.295Z,12.26
2023-04-02T15:50:21.982Z,12.30
2023-04-02T15:53:48.223Z,12.43
2023-04-02T15:57:11.307Z,12.55
2023-04-02T16:00:27.820Z,12.88
2023-04-02T16:03:44.079Z,13.12
2023-04-02T16:07:34.194Z,13.43
2023-04-02T16:10:42.586Z,13.53
2023-04-02T16:13:45.685Z,13.71
2023-04-02T16:16:50.493Z,13.79
2023-04-02T16:20:17.565Z,13.76
2023-04-02T16:23:32.299Z,13.80
2023-04-02T16:27:04.936Z,13.91
2023-04-02T16:30:28.919Z,13.56
2023-04-02T16:33:46.403Z,13.45
2023-04-02T16:36:54.817Z,13.52
2023-04-02T16:40:24.481Z,13.08
2023-04-02T16:43:45.670Z,13.31
2023-04-02T16:47:12.574Z,13.21
2023-04-02T16:50:44.745Z,13.10
2023-04-02T16:54:36.729Z,12.94
2023-04-02T16:58:17.797Z,12.48
2023-04-02T17:01:20.042Z,12.31
2023-04-02T17:04:46.560Z,12.29
2023-04-02T17:08:04.932Z,12.28
2023-04-02T17:11:10.898Z,12.25
2023-04-02T17:15:07.381Z,12.12
2023-04-02T17:18:20.055Z,11.86
2023-04-02T17:21:27.375Z,11.93
2023-04-02T17:24:35.936Z,11.92
2023-04-02T17:27:43.620Z,11.64
2023-04-02T17:30:49.545Z,11.62
2023-04-02T17:33:51.820Z,11.54
2023-04-02T17:36:54.023Z,11.43
2023-04-02T17:40:15.076Z,11.30
2023-04-02T17:43:28.983Z,11.14
2023-04-02T17:46:52.800Z,10.91
2023-04-02T17:50:03.874Z,10.79
2023-04-02T17:53:20.628Z,10.56
2023-04-02T17:57:06.389Z,10.30
2023-04-02T18:00:45.738Z,10.20
2023-04-02T18:04:29.897Z,10.05
2023-04-02T18:07:50.229Z,10.02
2023-04-02T18:11:10.848Z,9.98
2023-04-02T18:14:31.973Z,9.95
2023-04-02T18:17:39.826Z,9.90
2023-04-02T18:21:06.476Z,9.82
2023-04-02T18:24:21.284Z,9.87
2023-04-02T18:27:44.621Z,9.68
2023-04-02T18:31:40.740Z,9.62
2023-04-02T18:34:51.859Z,9.62
2023-04-02T18:38:00.926Z,9.46
2023-04-02T18:41:21.863Z,9.32
2023-04-02T18:44:31.537Z,9.29
2023-04-02T18:48:06.951Z,9.13
2023-04-02T18:51:17.526Z,9.07
2023-04-02T18:54:29.820Z,9.06
2023-04-02T18:57:36.086Z,8.94
2023-04-02T19:00:45.021Z,8.82
2023-04-02T19:03:56.833Z,8.74
2023-04-02T19:07:13.017Z,8.70
2023-04-02T19:10:31.084Z,8.56
2023-04-02T19:13:33.348Z,8.51
2023-04-02T19:16:43.660Z,8.48
2023-04-02T19:20:22.924Z,8.46
2023-04-02T19:23:56.123Z,8.46
2023-04-02T19:27:32.797Z,8.49
2023-04-02T19:31:12.940Z,8.44
2023-04-02T19:34:33.967Z,8.39
2023-04-02T19:37:51.588Z,8.48
2023-04-02T19:40:59.853Z,8.58
2023-04-02T19:44:02.255Z,8.63
2023-04-02T19:47:05.190Z,8.71
2023-04-02T19:50:08.245Z,8.71
2023-04-02T19:53:11.153Z,8.72
2023-04-02T19:56:13.508Z,8.80
2023-04-02T19:59:18.408Z,8.72
2023-04-02T20:02:21.420Z,8.66
2023-04-02T20:05:23.678Z,8.68
2023-04-02T20:08:26.978Z,8.70
2023-04-02T20:11:29.715Z,8.48
2023-04-02T20:14:32.422Z,8.60
2023-04-02T20:17:34.756Z,8.62
2023-04-02T20:20:38.050Z,8.58
2023-04-02T20:23:41.181Z,8.54
2023-04-02T20:26:43.469Z,8.57
2023-04-02T20:29:46.193Z,8.63
2023-04-02T20:32:48.687Z,8.48
2023-04-02T20:35:52.397Z,8.55
2023-04-02T20:38:54.922Z,8.49
2023-04-02T20:42:01.214Z,8.41
2023-04-02T20:45:05.237Z,8.28
2023-04-02T20:48:07.550Z,8.25
2023-04-02T20:51:13.041Z,8.21
2023-04-02T20:54:15.486Z,7.94
2023-04-02T20:57:19.711Z,7.95
2023-04-02T21:00:22.624Z,8.01
2023-04-02T21:03:24.857Z,7.92
2023-04-02T21:06:33.265Z,7.98
2023-04-02T21:09:35.771Z,8.02
2023-04-02T21:12:37.969Z,7.97
2023-04-02T21:15:43.308Z,7.92
2023-04-02T21:18:46.977Z,7.88
2023-04-02T21:21:49.266Z,7.74
2023-04-02T21:24:51.534Z,7.60
2023-04-02T21:27:53.842Z,7.66
2023-04-02T21:31:06.312Z,7.76
2023-04-02T21:34:12.347Z,7.68
2023-04-02T21:37:14.627Z,7.71
2023-04-02T21:40:16.960Z,7.59
2023-04-02T21:43:19.490Z,7.51
2023-04-02T21:46:24.709Z,7.51
2023-04-02T21:49:28.007Z,7.47
2023-04-02T21:52:30.298Z,7.58
2023-04-02T21:55:32.489Z,7.62
2023-04-02T21:58:35.034Z,7.42
2023-04-02T22:01:40.207Z,7.61
2023-04-02T22:04:42.564Z,7.64
2023-04-02T22:07:44.810Z,7.64
2023-04-02T22:10:47.054Z,7.79
2023-04-02T22:13:49.884Z,7.76
2023-04-02T22:16:52.378Z,7.84
2023-04-02T22:19:54.729Z,7.91
2023-04-02T22:22:56.989Z,7.92
2023-04-02T22:26:00.892Z,7.85
2023-04-02T22:29:04.506Z,7.80
2023-04-02T22:32:06.727Z,7.75
2023-04-02T22:35:09.284Z,7.75
2023-04-02T22:38:11.593Z,7.64
2023-04-02T22:41:16.279Z,7.56
2023-04-02T22:44:18.526Z,7.48
2023-04-02T22:47:21.066Z,7.39
2023-04-02T22:50:23.463Z,7.25
2023-04-02T22:53:26.410Z,7.14
2023-04-02T22:56:32.134Z,7.04
2023-04-02T22:59:34.828Z,7.08
2023-04-02T23:02:39.996Z,7.07
2023-04-02T23:05:42.685Z,7.04
2023-04-02T23:08:45.819Z,6.97
2023-04-02T23:11:48.093Z,6.94
2023-04-02T23:14:50.406Z,6.92
2023-04-02T23:17:52.775Z,6.94
2023-04-02T23:20:55.685Z,7.01
2023-04-02T23:24:01.270Z,7.03
2023-04-02T23:27:03.656Z,7.00
2023-04-02T23:30:08.809Z,6.95
2023-04-02T23:33:11.059Z,6.89
2023-04-02T23:36:26.900Z,6.82
2023-04-02T23:39:29.690Z,6.89
2023-04-02T23:42:31.874Z,6.76
2023-04-02T23:45:34.119Z,6.80
2023-04-02T23:48:36.364Z,6.87
2023-04-02T23:51:38.788Z,6.78
2023-04-02T23:54:41.128Z,6.74
2023-04-02T23:57:43.425Z,6.67
